createdAt,value
2022-12-28T00:01:18.385Z,10.893723252075507
2022-12-28T00:04:17.075Z,10.880235343281038
2022-12-28T00:07:17.318Z,10.92904873699381
2022-12-28T00:11:27.878Z,10.94703262550911
2022-12-28T00:14:17.303Z,10.930975582021347
2022-12-28T00:17:17.124Z,10.912991696689279
2022-12-28T00:21:16.354Z,11.002911159001815
2022-12-28T00:24:20.035Z,11.015756803750993
2022-12-28T00:27:16.856Z,11.037594403999174
2022-12-28T00:31:16.278Z,11.094757558951187
2022-12-28T00:34:16.526Z,11.10246495338588
2022-12-28T00:37:16.636Z,11.138432802739498
2022-12-28T00:41:17.359Z,11.167335549161361
2022-12-28T00:44:17.488Z,11.186604051891845
2022-12-28T00:47:17.453Z,11.207157125982121
2022-12-28T00:51:18.521Z,11.254043843678755
2022-12-28T00:54:17.276Z,11.255970695609358
2022-12-28T00:57:17.340Z,11.293865458561868
2022-12-28T01:01:18.778Z,11.323410538964618
2022-12-28T01:04:16.765Z,11.354882483021356
2022-12-28T01:07:16.684Z,11.37543559523765
2022-12-28T01:11:19.437Z,11.42874525175148
2022-12-28T01:14:17.138Z,11.426176110960023
2022-12-28T01:17:17.075Z,11.459574946924203
2022-12-28T01:21:18.991Z,11.465355515935517
2022-12-28T01:24:17.426Z,11.479485797291636
2022-12-28T01:27:17.212Z,11.481412654010729
2022-12-28T01:31:18.338Z,11.476916655063178
2022-12-28T01:34:17.097Z,11.474989798439584
2022-12-28T01:37:16.656Z,11.496185223550128
2022-12-28T01:41:18.262Z,11.47434751290748
2022-12-28T01:44:50.160Z,11.46920922881436
2022-12-28T01:47:21.549Z,11.485908653181104
2022-12-28T01:51:17.427Z,11.501965794894295
2022-12-28T01:54:17.810Z,11.505177223577993
2022-12-28T01:57:18.805Z,11.496827509236846
2022-12-28T02:01:17.946Z,11.547568092857546
2022-12-28T02:04:17.673Z,11.556560097978581
2022-12-28T02:07:27.240Z,11.561698387019351
2022-12-28T02:11:18.231Z,11.57968240095397
2022-12-28T02:14:19.115Z,11.590601268296542
2022-12-28T02:17:16.886Z,11.59509727287841
2022-12-28T02:21:23.221Z,11.627211597800487
2022-12-28T02:24:40.764Z,11.647122484961528
2022-12-28T02:27:27.736Z,11.636203610815937
2022-12-28T02:31:22.532Z,11.649049345241291
2022-12-28T02:34:23.896Z,11.650333918783872
2022-12-28T02:37:22.087Z,11.622715591627003
2022-12-28T02:41:21.477Z,11.631065317555112
2022-12-28T02:51:31.211Z,11.627211597800487
2022-12-28T02:56:23.787Z,11.622715591627003
2022-12-28T02:57:30.281Z,11.608585287960977
2022-12-28T03:01:33.638Z,11.64005733095255
2022-12-28T03:04:24.099Z,11.627211597800487
2022-12-28T03:08:32.167Z,11.599593277683107
2022-12-28T03:11:19.447Z,11.617577299130152
2022-12-28T03:14:22.273Z,11.634276750809022
2022-12-28T03:31:21.663Z,11.652260779131847
2022-12-28T03:34:16.572Z,11.64262647780124
2022-12-28T03:37:23.167Z,11.647764771716902
2022-12-28T03:41:22.038Z,11.64005733095255
2022-12-28T03:44:23.939Z,11.657399073593206
2022-12-28T03:47:18.241Z,11.620146445342197
2022-12-28T03:51:20.860Z,11.629138457657337
2022-12-28T03:54:17.930Z,11.62978074428538
2022-12-28T03:57:17.454Z,11.592528127375772
2022-12-28T04:01:17.064Z,11.589958981945893
2022-12-28T04:04:17.289Z,11.609869860930576
2022-12-28T04:07:17.347Z,11.620788731906577
2022-12-28T04:11:16.460Z,11.600235564101968
2022-12-28T04:14:16.752Z,11.58160925980128
2022-12-28T04:17:16.778Z,11.566194390168766
2022-12-28T04:21:16.712Z,11.625927024585327
2022-12-28T04:24:17.114Z,11.600235564101968
2022-12-28T04:27:17.094Z,11.613723579948509
2022-12-28T04:31:17.265Z,11.59188584101148
2022-12-28T04:34:17.324Z,11.604731569161322
2022-12-28T04:37:17.530Z,11.57325953842519
2022-12-28T04:41:16.611Z,11.583536118689517
2022-12-28T04:44:17.120Z,11.584178404994692
2022-12-28T04:47:16.918Z,11.565552103990921
2022-12-28T04:51:18.251Z,11.58160925980128
2022-12-28T04:54:16.772Z,11.580966973514297
2022-12-28T04:57:16.738Z,11.578397828411834
2022-12-28T05:01:18.989Z,11.568763534925619
2022-12-28T05:04:17.422Z,11.577755542147589
2022-12-28T05:07:17.239Z,11.575186397136076
2022-12-28T05:11:19.869Z,11.58160925980128
2022-12-28T05:14:17.539Z,11.555275525763864
2022-12-28T05:17:17.340Z,11.532795514950795
2022-12-28T05:21:19.159Z,11.509030938148499
2022-12-28T05:24:17.046Z,11.509030938148499
2022-12-28T05:27:17.061Z,11.520592082842267
2022-12-28T05:31:18.613Z,11.511600081286451
2022-12-28T05:34:16.543Z,11.4788435117277
2022-12-28T05:37:21.812Z,11.440306386213432
2022-12-28T05:41:19.406Z,11.475632083976233
2022-12-28T05:44:17.133Z,11.435168104048444
2022-12-28T05:47:16.941Z,11.419753259299705
2022-12-28T05:51:25.299Z,11.42296468507302
2022-12-28T05:54:23.626Z,11.343321359446055
2022-12-28T05:57:23.672Z,11.342036790250859
2022-12-28T06:01:18.704Z,11.346532782513624
2022-12-28T06:04:19.312Z,11.343321359446055
2022-12-28T06:07:17.238Z,11.285515763670265
2022-12-28T06:11:18.446Z,11.304142007175779
2022-12-28T06:14:16.943Z,11.268816376192627
2022-12-28T06:17:16.697Z,11.219360515926473
2022-12-28T06:21:19.035Z,11.170546965998891
2022-12-28T06:24:18.450Z,11.130083122154247
2022-12-28T06:27:16.870Z,11.096042124644828
2022-12-28T06:31:19.619Z,11.049155488611722
2022-12-28T06:34:17.246Z,11.018325932919106
2022-12-28T06:37:17.285Z,10.988138669788986
2022-12-28T06:41:18.217Z,10.96630108144609
2022-12-28T06:44:17.000Z,10.917487667688055
2022-12-28T06:47:17.264Z,10.9181299492775
2022-12-28T06:51:18.424Z,10.884731312656367
2022-12-28T06:54:16.642Z,10.892438689246774
2022-12-28T06:57:16.632Z,10.802519336437399
2022-12-28T07:01:19.000Z,10.828852851959619
2022-12-28T07:04:16.897Z,10.811511267707465
2022-12-28T07:07:16.781Z,10.764624778735106
2022-12-28T07:11:19.351Z,10.773616706248959
2022-12-28T07:14:17.685Z,10.75306373038411
2022-12-28T07:17:17.580Z,10.776828109148482
2022-12-28T07:21:21.175Z,10.707461831811816
2022-12-28T07:24:17.075Z,10.69012027076542
2022-12-28T07:27:16.929Z,10.706177271620618
2022-12-28T07:31:19.212Z,10.724161115952665
2022-12-28T07:34:16.627Z,10.619469500767536
2022-12-28T07:37:16.387Z,10.647729802163758
2022-12-28T07:41:18.743Z,10.697185350791552
2022-12-28T07:44:16.996Z,10.681770631443943
2022-12-28T07:47:16.867Z,10.717738313996232
2022-12-28T07:51:18.696Z,10.734437600028832
2022-12-28T07:54:17.361Z,10.722876555525
2022-12-28T07:57:16.976Z,10.728657077592743
2022-12-28T08:01:19.156Z,10.810226706042886
2022-12-28T08:04:17.858Z,10.839129347895597
2022-12-28T08:07:17.311Z,10.812795829390234
2022-12-28T08:11:18.405Z,10.880877624606729
2022-12-28T08:14:16.399Z,10.914918541375755
2022-12-28T08:17:21.052Z,10.92647961035409
2022-12-28T08:21:19.040Z,11.034382991868279
2022-12-28T08:24:19.000Z,11.08705016517133
2022-12-28T08:27:16.927Z,11.142928784911419
2022-12-28T08:31:19.442Z,11.21101082789246
2022-12-28T08:34:19.789Z,11.284873479479666
2022-12-28T08:37:17.012Z,11.315060841353624
2022-12-28T08:41:19.943Z,11.404338417170312
2022-12-28T08:44:17.048Z,11.443517812714344
2022-12-28T08:47:17.075Z,11.489762366933064
2022-12-28T08:51:18.979Z,11.569405821126201
2022-12-28T08:54:16.752Z,11.613081293434153
2022-12-28T08:57:16.811Z,11.67281395872351
2022-12-28T09:01:18.986Z,11.77044162537577
2022-12-28T09:04:19.316Z,11.835954986905653
2022-12-28T09:07:16.912Z,11.89183406795055
2022-12-28T09:11:17.006Z,11.993315705450732
2022-12-28T09:14:23.336Z,12.057544648606926
2022-12-28T09:17:16.960Z,12.145538374556873
2022-12-28T09:21:19.454Z,12.230963022274954
2022-12-28T09:24:17.077Z,12.28170401651887
2022-12-28T09:27:16.937Z,12.33372962236317
2022-12-28T09:31:17.431Z,12.40630860381798
2022-12-28T09:34:35.729Z,12.48402598462162
2022-12-28T09:37:16.444Z,12.558531965918155
2022-12-28T09:41:25.153Z,12.676071698754914
2022-12-28T09:44:36.568Z,12.724243764406129
2022-12-28T09:47:25.454Z,12.795538468513495
2022-12-28T09:51:17.499Z,12.95354314757069
2022-12-28T09:54:17.407Z,13.02162654940048
2022-12-28T09:57:19.468Z,13.094848378205006
2022-12-28T10:01:18.156Z,13.247072895654492
2022-12-28T10:04:16.620Z,13.356905933967301
2022-12-28T10:07:17.061Z,13.45838921036784
2022-12-28T10:11:19.811Z,13.70695948719258
2022-12-28T10:14:20.255Z,13.877811803674557
2022-12-28T10:17:24.821Z,14.065364341113309
2022-12-28T10:21:19.575Z,14.32421317174676
2022-12-28T10:24:32.907Z,14.50148972007455
2022-12-28T10:27:21.295Z,14.6884012385799
2022-12-28T10:31:30.858Z,14.931194095336831
2022-12-28T10:34:19.239Z,15.120033433143181
2022-12-28T10:37:19.727Z,15.290888410806655
2022-12-28T10:41:19.415Z,15.582498777576621
2022-12-28T10:44:39.814Z,15.800243693521134
2022-12-28T10:47:27.459Z,15.967888365403997
2022-12-28T10:51:18.581Z,16.191415076458725
2022-12-28T10:54:28.089Z,16.34814102988785
2022-12-28T10:57:18.328Z,16.50037100614727
2022-12-28T11:01:22.862Z,16.650674271279513
2022-12-28T11:04:19.611Z,16.85685992467952
2022-12-28T11:07:27.961Z,17.051484195639297
2022-12-28T11:11:19.894Z,17.199219069494667
2022-12-28T11:14:28.323Z,17.346311856806278
2022-12-28T11:17:20.917Z,17.44330330117746
2022-12-28T11:21:19.095Z,17.592965799570084
2022-12-28T11:24:18.499Z,17.74712485431228
2022-12-28T11:27:21.074Z,17.74584019444046
2022-12-28T11:31:34.405Z,17.856321009900785
2022-12-28T11:34:20.176Z,18.048378096519535
2022-12-28T11:37:17.273Z,18.08691802909825
2022-12-28T11:41:51.229Z,18.304668955715897
2022-12-28T11:44:22.320Z,18.466537239798345
2022-12-28T11:47:28.257Z,18.58601163471503
2022-12-28T11:51:19.161Z,18.645106554869926
2022-12-28T11:54:37.625Z,18.774216242593774
2022-12-28T11:57:33.143Z,18.7228292801964
2022-12-28T12:01:52.250Z,18.8223915462735
2022-12-28T12:04:33.600Z,18.89561805685662
2022-12-28T12:07:24.665Z,18.89047935243143
2022-12-28T12:11:31.941Z,18.939939394604245
2022-12-28T12:14:22.223Z,19.119151981041068
2022-12-28T12:17:25.589Z,19.106305188873375
2022-12-28T12:21:28.259Z,19.167969807867486
2022-12-28T12:24:24.919Z,19.30992705880135
2022-12-28T12:27:27.067Z,19.27716767348793
2022-12-28T12:31:23.733Z,19.38700801207824
2022-12-28T12:34:23.104Z,19.410132310830612
2022-12-28T12:37:34.941Z,19.497490825971273
2022-12-28T12:41:28.772Z,19.52960794827168
2022-12-28T12:44:26.978Z,19.56108273915597
2022-12-28T12:47:51.925Z,19.594484569995256
2022-12-28T12:51:26.751Z,19.73772717630063
2022-12-28T12:54:29.737Z,19.713318106327005
2022-12-28T12:57:25.785Z,19.731946080187118
2022-12-28T13:01:26.866Z,19.785260647199266
2022-12-28T13:04:21.735Z,19.90730615950315
2022-12-28T13:07:21.132Z,19.937496390505476
2022-12-28T13:11:18.228Z,19.877115938546194
2022-12-28T13:14:21.364Z,19.94263515422972
2022-12-28T13:17:18.956Z,19.950343300361784
2022-12-28T13:21:19.096Z,19.99851922852331
2022-12-28T13:24:21.178Z,20.00815441722516
2022-12-28T13:27:19.767Z,19.93621169961989
2022-12-28T13:31:20.341Z,19.98181823719724
2022-12-28T13:34:21.431Z,19.996592190905723
2022-12-28T13:37:18.420Z,19.99466515332906
2022-12-28T13:41:23.288Z,20.0370599894698
2022-12-28T13:44:32.999Z,19.985029966059663
2022-12-28T13:47:23.253Z,19.913729612066618
2022-12-28T13:51:19.470Z,19.999161574404933
2022-12-28T13:54:17.743Z,19.93621169961989
2022-12-28T13:57:46.326Z,19.938781081409253
2022-12-28T14:01:20.134Z,19.926576518557795
2022-12-28T14:04:51.894Z,19.916298993219336
2022-12-28T14:07:18.580Z,19.825086006854054
2022-12-28T14:11:17.528Z,19.799392224430722
2022-12-28T14:14:17.570Z,19.782691269757287
2022-12-28T14:17:18.401Z,19.720383889065126
2022-12-28T14:21:30.173Z,19.683127949916887
2022-12-28T14:24:17.566Z,19.654864833871034
2022-12-28T14:27:17.120Z,19.565579138745033
2022-12-28T14:31:21.329Z,19.509695331106194
2022-12-28T14:34:23.750Z,19.472439478469095
2022-12-28T14:37:25.279Z,19.401139527282158
2022-12-28T14:41:20.315Z,19.360672012344004
2022-12-28T14:44:22.643Z,19.34589816218149
2022-12-28T14:47:36.007Z,19.250831705636028
2022-12-28T14:51:26.303Z,19.191094050795073
2022-12-28T14:54:21.122Z,19.131356435285216
2022-12-28T14:57:22.855Z,19.016377694631228
2022-12-28T15:01:18.453Z,18.876347916762825
2022-12-28T15:04:28.022Z,18.894975718787556
2022-12-28T15:07:17.619Z,18.735033681130517
2022-12-28T15:11:17.909Z,18.64061020089657
2022-12-28T15:14:17.307Z,18.537836456545573
2022-12-28T15:17:18.055Z,18.507646691263652
2022-12-28T15:21:20.002Z,18.40101909002442
2022-12-28T15:24:20.994Z,18.277690936444923
2022-12-28T15:27:17.237Z,17.98221791709984
2022-12-28T15:31:20.614Z,17.869809955887558
2022-12-28T15:34:17.348Z,17.66619131791267
2022-12-28T15:37:17.250Z,17.581403881023654
2022-12-28T15:41:55.054Z,17.40669062456327
2022-12-28T15:44:18.763Z,17.286575455908405
2022-12-28T15:47:17.300Z,17.183803245329273
2022-12-28T15:51:17.533Z,16.986609392263926
2022-12-28T15:54:17.131Z,16.902464914415123
2022-12-28T15:57:17.172Z,16.712979543931215
2022-12-28T16:01:17.249Z,16.574237964305574
2022-12-28T16:04:17.797Z,16.39117648251058
2022-12-28T16:07:19.548Z,16.280697451169637
2022-12-28T16:11:18.452Z,16.068732244450167
2022-12-28T16:14:17.639Z,16.02120072061598
2022-12-28T16:17:17.479Z,15.899802752492542
2022-12-28T16:21:16.294Z,15.68526917425952
2022-12-28T16:24:18.729Z,15.606264421461765
2022-12-28T16:27:16.996Z,15.456605200292325
2022-12-28T16:31:23.588Z,15.22216099389052
2022-12-28T16:34:17.679Z,15.096267916628221
2022-12-28T16:37:17.702Z,14.98450584136017
2022-12-28T16:41:17.086Z,14.786674459470031
2022-12-28T16:44:19.132Z,14.716662807538887
2022-12-28T16:47:16.853Z,14.59205504693091
2022-12-28T16:51:16.667Z,14.460382083815148
2022-12-28T16:54:19.241Z,14.35247462725538
2022-12-28T16:57:16.955Z,14.236859637653925
2022-12-28T17:01:16.768Z,14.093625715986127
2022-12-28T17:04:17.242Z,14.008199314307513
2022-12-28T17:07:16.795Z,13.909284633911103
2022-12-28T17:11:16.296Z,13.770547341825386
2022-12-28T17:14:29.245Z,13.697967268922365
2022-12-28T17:17:16.495Z,13.61639504390123
2022-12-28T17:21:16.574Z,13.47573130060373
2022-12-28T17:24:16.877Z,13.360117428316517
2022-12-28T17:27:19.222Z,13.32543329536129
2022-12-28T17:31:19.838Z,13.17513553912031
2022-12-28T17:34:17.507Z,13.157793506346298
2022-12-28T17:37:18.134Z,13.03061870063184
2022-12-28T17:41:18.584Z,12.961892995989547
2022-12-28T17:44:16.575Z,12.884817501317958
2022-12-28T17:47:16.686Z,12.72552835317365
2022-12-28T17:51:16.708Z,12.69084446283523
2022-12-28T17:54:17.156Z,12.492375789825838
2022-12-28T17:57:17.434Z,12.469895546796034
2022-12-28T18:01:17.171Z,12.398601098606832
2022-12-28T18:04:18.279Z,12.273996521894242
2022-12-28T18:07:17.385Z,12.203986809042181
2022-12-28T18:11:16.835Z,12.168018537210083
2022-12-28T18:14:17.547Z,12.151961277603641
2022-12-28T18:17:19.618Z,12.06332525572152
2022-12-28T18:21:21.781Z,11.97083558608947
2022-12-28T18:24:18.510Z,11.905322127152704
2022-12-28T18:27:17.251Z,11.82503609003179
2022-12-28T18:31:17.161Z,11.736400387573303
2022-12-28T18:34:17.334Z,11.661895081485635
2022-12-28T18:37:17.236Z,11.543072090631266
2022-12-28T18:41:18.278Z,11.467282372354475
2022-12-28T18:44:17.829Z,11.387639007819326
2022-12-28T18:47:17.028Z,11.395988712110556
2022-12-28T18:51:18.075Z,11.302857438535375
2022-12-28T18:54:17.494Z,11.239913597438226
2022-12-28T18:57:16.873Z,11.17118924938004
2022-12-28T19:01:56.043Z,11.123018008413146
2022-12-28T19:04:17.597Z,11.078058206589139
2022-12-28T19:07:17.113Z,11.018968215222504
2022-12-28T19:11:16.560Z,10.932902427089811
2022-12-28T19:14:16.866Z,10.9039997553602
2022-12-28T19:17:16.814Z,10.882162187271751
2022-12-28T19:21:27.674Z,10.900146066492017
2022-12-28T19:24:18.573Z,10.802519336437399
2022-12-28T19:27:17.068Z,10.72351883573656
2022-12-28T19:31:17.168Z,10.684339751153312
2022-12-28T19:34:17.156Z,10.665713634908844
2022-12-28T19:37:17.061Z,10.656721718090647
2022-12-28T19:41:16.702Z,10.649014361527316
2022-12-28T19:44:21.389Z,10.580290461122422
2022-12-28T19:47:16.726Z,10.553957017754964
2022-12-28T19:51:16.996Z,10.550745622745307
2022-12-28T19:54:17.295Z,10.519916236436984
2022-12-28T19:57:17.314Z,10.502574711242868
2022-12-28T20:01:20.101Z,10.525696745571713
2022-12-28T20:04:17.312Z,10.477525847370634
2022-12-28T20:07:17.513Z,10.49615192497522
2022-12-28T20:11:18.209Z,10.469818506032244
2022-12-28T20:14:23.186Z,10.42807041849601
2022-12-28T20:17:17.280Z,10.372834516820967
2022-12-28T20:21:20.077Z,10.369623128223248
2022-12-28T20:24:17.989Z,10.291907558823823
2022-12-28T20:27:16.957Z,10.231533526069052
2022-12-28T20:31:17.016Z,10.211622949609591
2022-12-28T20:34:16.942Z,10.219330269010971
2022-12-28T20:37:16.766Z,10.175013191395646
2022-12-28T20:43:23.346Z,10.104362822575876
2022-12-28T20:44:22.173Z,10.071606761156364
2022-12-28T20:47:17.544Z,10.023436104085068
2022-12-28T20:51:17.055Z,10.03114340749753
2022-12-28T20:54:17.469Z,10.034997059449324
2022-12-28T20:57:17.693Z,10.00095647287235
2022-12-28T21:01:17.099Z,10.008663774374872
2022-12-28T21:04:16.682Z,10.029216581583023
2022-12-28T21:07:16.603Z,9.976550022434457
2022-12-28T21:11:16.314Z,9.977192297361853
2022-12-28T21:14:16.828Z,9.963062250009624
2022-12-28T21:17:17.139Z,9.965631349364504
2022-12-28T21:21:18.661Z,9.999029647599036
2022-12-28T21:24:16.932Z,9.999029647599036
2022-12-28T21:27:16.746Z,9.973338647865694
2022-12-28T21:41:19.050Z,10.033070233452964
2022-12-28T21:44:19.653Z,10.029858856883312
2022-12-28T21:47:17.313Z,10.029216581583023
2022-12-28T21:51:32.151Z,9.976550022434457
2022-12-28T21:54:19.523Z,9.96755817392841
2022-12-28T21:57:17.121Z,9.978476847230286
2022-12-28T22:21:16.559Z,9.825615540598028
2022-12-28T22:24:16.984Z,9.873786092622685
2022-12-28T22:27:16.921Z,9.844883758338346
2022-12-28T22:31:16.314Z,9.879566560584589
2022-12-28T22:34:16.931Z,9.907826631478475
2022-12-28T22:37:17.167Z,9.915533925068393
2022-12-28T22:41:16.214Z,9.946363105976435
2022-12-28T22:44:16.508Z,9.970769548292537
2022-12-28T22:47:16.818Z,9.961777700359471
2022-12-28T22:51:16.882Z,9.977192297361853
2022-12-28T22:54:16.748Z,9.981045947021721
2022-12-28T22:57:16.987Z,9.957281776727177
2022-12-28T23:01:18.428Z,9.994533722120469
2022-12-28T23:04:16.725Z,9.984899596845299
2022-12-28T23:07:16.733Z,10.038850711564828
2022-12-28T23:11:50.560Z,10.038850711564828
2022-12-28T23:15:22.005Z,10.06261490322795
2022-12-28T23:17:21.980Z,10.09665551294247
2022-12-28T23:31:16.710Z,10.071606761156364
2022-12-28T23:34:16.889Z,10.111427856981754
2022-12-28T23:37:17.171Z,10.13198068747297
2022-12-28T23:42:20.774Z,10.108216477638143
2022-12-28T23:44:18.032Z,10.111427856981754
2022-12-28T23:47:17.400Z,10.078671793011107
2022-12-28T23:51:18.260Z,9.997102822366651
2022-12-28T23:54:18.354Z,9.943151732476327
2022-12-28T23:57:16.661Z,9.825615540598028
